Eastern Dawn — WDE4132 — position and weather

sailwx.info

Track history (hours):
 
Tides and Currents Weather Stations Pressure Air Temp Water Temp Dewpoint Dewpoint Depression Visibility Wind Speed Wind Dir Waves Ship Positions

Eastern Dawn

Owner: EASTERN BARGE SERVICES INC, SYOSSET, NY. More information available from US FCC via Universal Licensing System and Coast Guard Vessel Documentation Center.

Last reported at 2018-Apr-27 21:25 UTC. Time now 2018-Jun-22 11:29 UTC.
Position N 40°40' W 074°01'.
Warning: this ship's position is 55 days out of date.

Length 14 m; draft 2.5 m.

Type: Towing. MMSI: 367349170.

Date/timePositionNaut miles runAvg speedWind from/ knotsBaromVisibWave heightAir tempDewpointWater temp
2018-Apr-27 21:25N 40°40' W 074°01'0 0.0
2018-Apr-27 21:00N 40°40' W 074°01'0 0.0
2018-Apr-27 20:31N 40°40' W 074°01'0 0.0
2018-Apr-27 20:01N 40°40' W 074°01'0 0.0
2018-Apr-27 19:30N 40°40' W 074°01'0 0.0
2018-Apr-27 19:01N 40°40' W 074°01'0 0.0
2018-Apr-27 18:31N 40°40' W 074°01'0 0.0
2018-Apr-27 17:59N 40°40' W 074°01'0 0.0
2018-Apr-27 17:31N 40°40' W 074°01'0 0.0
2018-Apr-27 17:01N 40°40' W 074°01'0 0.0
2018-Apr-27 16:31N 40°40' W 074°01'0 0.0
2018-Apr-27 16:01N 40°40' W 074°01'0 0.0
2018-Apr-27 15:31N 40°40' W 074°01'0 0.0
2018-Apr-27 15:01N 40°40' W 074°01'0 0.0
2018-Apr-27 14:30N 40°40' W 074°01'0 0.0
2018-Apr-27 14:01N 40°40' W 074°01'0 0.0
2018-Apr-27 13:31N 40°40' W 074°01'0 0.0
2018-Apr-27 13:01N 40°40' W 074°01'0 0.0
2018-Apr-27 12:31N 40°40' W 074°01'0 0.0
2018-Apr-27 12:00N 40°40' W 074°01'0 0.0
2018-Apr-27 11:31N 40°40' W 074°01'0 0.0
2018-Apr-27 11:01N 40°40' W 074°01'0 0.0
2018-Apr-27 10:30N 40°40' W 074°01'0 0.0
2018-Apr-27 10:01N 40°40' W 074°01'0 0.0
2018-Apr-27 09:31N 40°40' W 074°01'0 0.0
2018-Apr-27 09:00N 40°40' W 074°01'0 0.0
2018-Apr-27 08:30N 40°40' W 074°01'0 0.0
2018-Apr-27 08:00N 40°40' W 074°01'0 0.0
2018-Apr-27 07:30N 40°40' W 074°01'0 0.0
2018-Apr-27 07:00N 40°40' W 074°01'0 0.0
2018-Apr-27 06:31N 40°40' W 074°01'0 0.0
2018-Apr-27 06:01N 40°40' W 074°01'0 0.0
2018-Apr-27 05:31N 40°40' W 074°01'0 0.0
2018-Apr-27 05:00N 40°40' W 074°01'0 0.0
2018-Apr-27 04:31N 40°40' W 074°01'0 0.0
2018-Apr-27 04:00N 40°40' W 074°01'0 0.0
2018-Apr-27 03:30N 40°40' W 074°01'0 0.0
2018-Apr-27 03:01N 40°40' W 074°01'0 0.0
2018-Apr-27 02:31N 40°40' W 074°01'0 0.0
2018-Apr-27 02:01N 40°40' W 074°01'0 0.0
2018-Apr-27 01:30N 40°40' W 074°01'1 2.4
2018-Apr-27 01:01N 40°40' W 074°02'4 8.0
2018-Apr-27 00:31N 40°39' W 074°07'3 0.2
2018-Apr-26 09:00N 40°39' W 074°11'4 7.6
2018-Apr-26 08:30N 40°39' W 074°06'4 7.2
2018-Apr-26 08:00N 40°40' W 074°02'1 1.9
2018-Apr-26 07:30N 40°40' W 074°01'0 0.0
2018-Apr-26 07:01N 40°40' W 074°01'0 0.0
2018-Apr-26 06:30N 40°40' W 074°01'0 0.0
2018-Apr-26 06:01N 40°40' W 074°01'0 0.0
2018-Apr-26 05:31N 40°40' W 074°01'0 0.0
2018-Apr-26 05:00N 40°40' W 074°01'0 0.0
2018-Apr-26 04:30N 40°40' W 074°01'0 0.0
2018-Apr-26 04:01N 40°40' W 074°01'0 0.0
2018-Apr-26 03:30N 40°40' W 074°01'0 0.0
2018-Apr-26 03:01N 40°40' W 074°01'0 0.0
2018-Apr-26 02:30N 40°40' W 074°01'0 0.0
2018-Apr-26 02:01N 40°40' W 074°01'0 0.0
2018-Apr-26 01:31N 40°40' W 074°01'0 0.0
2018-Apr-26 01:01N 40°40' W 074°01'0 0.0
2018-Apr-26 00:31N 40°40' W 074°01'0 0.0
2018-Apr-26 00:01N 40°40' W 074°01'0 0.0
2018-Apr-25 23:31N 40°40' W 074°01'0 0.0
2018-Apr-25 23:00N 40°40' W 074°01'0 0.0
2018-Apr-25 22:30N 40°40' W 074°01'0 0.0
2018-Apr-25 22:01N 40°40' W 074°01'0 0.0
2018-Apr-25 21:30N 40°40' W 074°01'0 0.0
2018-Apr-25 21:01N 40°40' W 074°01'0 0.0
2018-Apr-25 20:31N 40°40' W 074°01'0 0.0
2018-Apr-25 20:00N 40°40' W 074°01'0 0.0
2018-Apr-25 19:31N 40°40' W 074°01'0 0.0
2018-Apr-25 19:00N 40°40' W 074°01'0 0.0
2018-Apr-25 18:30N 40°40' W 074°01'0 0.0
2018-Apr-25 18:01N 40°40' W 074°01'0 0.0
2018-Apr-25 17:31N 40°40' W 074°01'0 0.0
2018-Apr-25 17:00N 40°40' W 074°01'0 0.0
2018-Apr-25 16:30N 40°40' W 074°01'0 0.0
2018-Apr-25 16:00N 40°40' W 074°01'0 0.0
2018-Apr-25 15:30N 40°40' W 074°01'0 0.0
2018-Apr-25 15:00N 40°40' W 074°01'0 0.0
2018-Apr-25 14:31N 40°40' W 074°01'0 0.0
2018-Apr-25 14:01N 40°40' W 074°01'0 0.0
2018-Apr-25 13:30N 40°40' W 074°01'0 0.0
2018-Apr-25 13:01N 40°40' W 074°01'0 0.0
2018-Apr-25 12:30N 40°40' W 074°01'0 0.0
2018-Apr-25 12:01N 40°40' W 074°01'0 0.0
2018-Apr-25 11:31N 40°40' W 074°01'0 0.0
2018-Apr-25 11:01N 40°40' W 074°01'0 0.0
2018-Apr-25 10:31N 40°40' W 074°01'0 0.0
2018-Apr-25 10:01N 40°40' W 074°01'0 0.0
2018-Apr-25 09:30N 40°40' W 074°01'0 0.0
2018-Apr-25 09:01N 40°40' W 074°01'0 0.0
2018-Apr-25 08:31N 40°40' W 074°01'0 0.0
2018-Apr-25 08:01N 40°40' W 074°01'0 0.0
2018-Apr-25 07:30N 40°40' W 074°01'0 0.0
2018-Apr-25 06:59N 40°40' W 074°01'0 0.0
2018-Apr-25 06:31N 40°40' W 074°01'0 0.0
2018-Apr-25 06:00N 40°40' W 074°01'0 0.0
2018-Apr-25 05:30N 40°40' W 074°01'0 0.0
2018-Apr-25 05:01N 40°40' W 074°01'0 0.0
2018-Apr-25 04:31N 40°40' W 074°01'0 0.0
2018-Apr-25 04:00N 40°40' W 074°01'0 0.0
2018-Apr-25 03:31N 40°40' W 074°01'0 0.0
2018-Apr-25 03:00N 40°40' W 074°01'0 0.0
2018-Apr-25 02:30N 40°40' W 074°01'0 0.0
2018-Apr-25 02:00N 40°40' W 074°01'0 0.0
2018-Apr-25 01:30N 40°40' W 074°01'0 0.0
2018-Apr-25 01:00N 40°40' W 074°01'0 0.0
2018-Apr-25 00:30N 40°40' W 074°01'0 0.0
2018-Apr-25 00:01N 40°40' W 074°01'0 0.0
2018-Apr-24 23:30N 40°40' W 074°01'0 0.0
2018-Apr-24 23:00N 40°40' W 074°01'0 0.0
2018-Apr-24 22:31N 40°40' W 074°01'0 0.0
2018-Apr-24 22:00N 40°40' W 074°01'0 0.0
2018-Apr-24 21:31N 40°40' W 074°01'0 0.0
2018-Apr-24 21:00N 40°40' W 074°01'0 0.0
2018-Apr-24 20:30N 40°40' W 074°01'0 0.0
2018-Apr-24 20:00N 40°40' W 074°01'0 0.0
2018-Apr-24 19:31N 40°40' W 074°01'0 0.0
2018-Apr-24 19:01N 40°40' W 074°01'0 0.0
2018-Apr-24 18:30N 40°40' W 074°01'0 0.0
2018-Apr-24 18:00N 40°40' W 074°01'0 0.0
2018-Apr-24 17:31N 40°40' W 074°01'0 0.0
2018-Apr-24 17:00N 40°40' W 074°01'0 0.0
2018-Apr-24 16:30N 40°40' W 074°01'0 0.0
2018-Apr-24 16:00N 40°40' W 074°01'0 0.0
2018-Apr-24 15:30N 40°40' W 074°01'0 0.0
2018-Apr-24 15:00N 40°40' W 074°01'0 0.0
2018-Apr-24 14:31N 40°40' W 074°01'0 0.0
2018-Apr-24 14:00N 40°40' W 074°01'0 0.0
2018-Apr-24 13:30N 40°40' W 074°01'0 0.0
2018-Apr-24 13:00N 40°40' W 074°01'0 0.0
2018-Apr-24 12:30N 40°40' W 074°01'0 0.0
2018-Apr-24 12:00N 40°40' W 074°01'0 0.0
2018-Apr-24 11:31N 40°40' W 074°01'0 0.0
2018-Apr-24 11:00N 40°40' W 074°01'0 0.0
2018-Apr-24 10:30N 40°40' W 074°01'0 0.0
2018-Apr-24 10:01N 40°40' W 074°01'0 0.0
2018-Apr-24 09:30N 40°40' W 074°01'0 0.0
2018-Apr-24 09:01N 40°40' W 074°01'0 0.0
2018-Apr-24 08:31N 40°40' W 074°01'0 0.0
2018-Apr-24 08:00N 40°40' W 074°01'0 0.0
2018-Apr-24 07:30N 40°40' W 074°01'0 0.0
2018-Apr-24 07:00N 40°40' W 074°01'0 0.0
2018-Apr-24 06:30N 40°40' W 074°01'0 0.0
2018-Apr-24 06:01N 40°40' W 074°01'0 0.0
2018-Apr-24 05:30N 40°40' W 074°01'0 0.0
2018-Apr-24 05:01N 40°40' W 074°01'0 0.0
2018-Apr-24 04:30N 40°40' W 074°01'0 0.0
2018-Apr-24 04:00N 40°40' W 074°01'0 0.0
2018-Apr-24 03:27N 40°40' W 074°01'0 0.0
2018-Apr-24 02:59N 40°40' W 074°01'0 0.0
2018-Apr-24 02:30N 40°40' W 074°01'0 0.0
2018-Apr-24 02:00N 40°40' W 074°01'0 0.0
2018-Apr-24 01:30N 40°40' W 074°01'0 0.0
2018-Apr-24 01:00N 40°40' W 074°01'0 0.0
2018-Apr-24 00:30N 40°40' W 074°01'0 0.0
2018-Apr-24 00:00N 40°40' W 074°01'0 0.0
2018-Apr-23 23:30N 40°40' W 074°01'0 0.0
2018-Apr-23 23:00N 40°40' W 074°01'0 0.0
2018-Apr-23 22:31N 40°40' W 074°01'0 0.0
2018-Apr-23 22:00N 40°40' W 074°01'0 0.0
2018-Apr-23 21:30N 40°40' W 074°01'0 0.0
2018-Apr-23 21:00N 40°40' W 074°01'0 0.0
2018-Apr-23 20:30N 40°40' W 074°01'0 0.0
2018-Apr-23 20:00N 40°40' W 074°01'0 0.0
2018-Apr-23 19:25N 40°40' W 074°01'0 0.0
2018-Apr-23 19:01N 40°40' W 074°01'0 0.0
2018-Apr-23 18:29N 40°40' W 074°01'0 0.0
2018-Apr-23 18:01N 40°40' W 074°01'0 0.0
2018-Apr-23 17:30N 40°40' W 074°01'0 0.0
2018-Apr-23 16:58N 40°40' W 074°01'0 0.0
2018-Apr-23 16:30N 40°40' W 074°01'0 0.0
2018-Apr-23 16:00N 40°40' W 074°01'0 0.0
2018-Apr-23 15:30N 40°40' W 074°01'0 0.0
2018-Apr-23 15:01N 40°40' W 074°01'0 0.0
2018-Apr-23 14:30N 40°40' W 074°01'0 0.0
2018-Apr-23 13:59N 40°40' W 074°01'0 0.0
2018-Apr-23 13:30N 40°40' W 074°01'0 0.0
2018-Apr-23 13:00N 40°40' W 074°01'0 0.0
2018-Apr-23 12:27N 40°40' W 074°01'0 0.0
2018-Apr-23 12:00N 40°40' W 074°01'0 0.0
2018-Apr-23 11:30N 40°40' W 074°01'0 0.0
2018-Apr-23 11:00N 40°40' W 074°01'0 0.0
2018-Apr-23 10:30N 40°40' W 074°01'0 0.0
2018-Apr-23 10:00N 40°40' W 074°01'0 0.0
2018-Apr-23 09:30N 40°40' W 074°01'0 0.0
2018-Apr-23 09:00N 40°40' W 074°01'0 0.0
2018-Apr-23 08:30N 40°40' W 074°01'0 0.0
2018-Apr-23 08:01N 40°40' W 074°01'0 0.0
2018-Apr-23 07:31N 40°40' W 074°01'0 0.0
2018-Apr-23 07:00N 40°40' W 074°01'0 0.0
2018-Apr-23 06:31N 40°40' W 074°01'0 0.0
2018-Apr-23 06:01N 40°40' W 074°01'0 0.0
2018-Apr-23 05:30N 40°40' W 074°01'0 0.0
2018-Apr-23 05:00N 40°40' W 074°01'0 0.0
2018-Apr-23 04:30N 40°40' W 074°01'0 0.0
2018-Apr-23 04:01N 40°40' W 074°01'0 0.0
2018-Apr-23 03:30N 40°40' W 074°01'0 0.0
2018-Apr-23 03:00N 40°40' W 074°01'0 0.0
2018-Apr-23 02:30N 40°40' W 074°01'0 0.0
2018-Apr-23 02:01N 40°40' W 074°01'0 0.0
2018-Apr-23 01:30N 40°40' W 074°01'1 2.2
2018-Apr-23 01:01N 40°41' W 074°02'1 2.0
2018-Apr-23 00:31N 40°42' W 074°02'0 0.0
2018-Apr-23 00:01N 40°42' W 074°02'2 4.1
2018-Apr-22 23:31N 40°40' W 074°01'0 0.0
2018-Apr-22 23:01N 40°40' W 074°01'0 0.0
2018-Apr-22 22:31N 40°40' W 074°01'0 0.0
2018-Apr-22 22:01N 40°40' W 074°01'0 0.4
2018-Apr-22 21:31N 40°40' W 074°01'0 0.0
2018-Apr-22 21:01N 40°40' W 074°01'0 0.0
2018-Apr-22 20:31N 40°40' W 074°01'0 0.1
2018-Apr-22 20:00N 40°40' W 074°01'0 0.0
2018-Apr-22 19:31N 40°40' W 074°01'0 0.0
2018-Apr-22 19:00N 40°40' W 074°01'0 0.0
2018-Apr-22 18:31N 40°40' W 074°01'0 0.0
2018-Apr-22 18:01N 40°40' W 074°01'0 0.0
2018-Apr-22 17:31N 40°40' W 074°01'0 0.0
2018-Apr-22 17:00N 40°40' W 074°01'0 0.0
2018-Apr-22 16:30N 40°40' W 074°01'0 0.0
2018-Apr-22 16:00N 40°40' W 074°01'0 0.0
2018-Apr-22 15:30N 40°40' W 074°01'0 0.0
2018-Apr-22 15:01N 40°40' W 074°01'0 0.0
2018-Apr-22 14:30N 40°40' W 074°01'0 0.0
2018-Apr-22 14:01N 40°40' W 074°01'0 0.0
2018-Apr-22 13:30N 40°40' W 074°01'0 0.0
2018-Apr-22 13:01N 40°40' W 074°01'0 0.0
2018-Apr-22 12:31N 40°40' W 074°01'0 0.0
2018-Apr-22 12:01N 40°40' W 074°01'0 0.0
2018-Apr-22 11:31N 40°40' W 074°01'0 0.0
2018-Apr-22 11:00N 40°40' W 074°01'0 0.0
2018-Apr-22 10:30N 40°40' W 074°01'0 0.0
2018-Apr-22 10:00N 40°40' W 074°01'0 0.0
2018-Apr-22 09:31N 40°40' W 074°01'0 0.0
2018-Apr-22 09:00N 40°40' W 074°01'0 0.0
2018-Apr-22 08:31N 40°40' W 074°01'0 0.0
2018-Apr-22 08:00N 40°40' W 074°01'0 0.0
2018-Apr-22 07:30N 40°40' W 074°01'0 0.0
2018-Apr-22 07:00N 40°40' W 074°01'0 0.0
2018-Apr-22 06:30N 40°40' W 074°01'0 0.0
2018-Apr-22 06:01N 40°40' W 074°01'0 0.0
2018-Apr-22 05:30N 40°40' W 074°01'0 0.0
2018-Apr-22 05:00N 40°40' W 074°01'0 0.0
2018-Apr-22 04:30N 40°40' W 074°01'0 0.0
2018-Apr-22 04:00N 40°40' W 074°01'0 0.0
2018-Apr-22 03:31N 40°40' W 074°01'0 0.0
2018-Apr-22 03:01N 40°40' W 074°01'0 0.0
2018-Apr-22 02:30N 40°40' W 074°01'0 0.0
2018-Apr-22 02:01N 40°40' W 074°01'0 0.0
2018-Apr-22 01:31N 40°40' W 074°01'0 0.0
2018-Apr-22 01:00N 40°40' W 074°01'0 0.0
2018-Apr-22 00:31N 40°40' W 074°01'0 0.0
2018-Apr-22 00:00N 40°40' W 074°01'0 0.0
2018-Apr-21 23:30N 40°40' W 074°01'0 0.0
2018-Apr-21 23:00N 40°40' W 074°01'0 0.0
2018-Apr-21 22:31N 40°40' W 074°01'0 0.0
2018-Apr-21 22:01N 40°40' W 074°01'0 0.0
2018-Apr-21 21:31N 40°40' W 074°01'0 0.0
2018-Apr-21 21:01N 40°40' W 074°01'0 0.0
2018-Apr-21 20:30N 40°40' W 074°01'0 0.0
2018-Apr-21 20:00N 40°40' W 074°01'0 0.0
2018-Apr-21 19:30N 40°40' W 074°01'0 0.0
2018-Apr-21 19:01N 40°40' W 074°01'0 0.0
2018-Apr-21 18:31N 40°40' W 074°01'0 0.0
2018-Apr-21 18:00N 40°40' W 074°01'0 0.0
2018-Apr-21 17:31N 40°40' W 074°01'0 0.0
2018-Apr-21 17:00N 40°40' W 074°01'0 0.0
2018-Apr-21 16:31N 40°40' W 074°01'0 0.0
2018-Apr-21 16:01N 40°40' W 074°01'0 0.0
2018-Apr-21 15:31N 40°40' W 074°01'0 0.0
2018-Apr-21 15:00N 40°40' W 074°01'0 0.0
2018-Apr-21 14:31N 40°40' W 074°01'0 0.0
2018-Apr-21 14:00N 40°40' W 074°01'0 0.0
2018-Apr-21 13:30N 40°40' W 074°01'0 0.0
2018-Apr-21 13:01N 40°40' W 074°01'0 0.0
2018-Apr-21 12:29N 40°40' W 074°01'0 0.0
2018-Apr-21 12:01N 40°40' W 074°01'0 0.0
2018-Apr-21 11:31N 40°40' W 074°01'0 0.0
2018-Apr-21 11:01N 40°40' W 074°01'0 0.0
2018-Apr-21 10:31N 40°40' W 074°01'0 0.0
2018-Apr-21 10:00N 40°40' W 074°01'0 0.0
2018-Apr-21 09:31N 40°40' W 074°01'0 0.0
2018-Apr-21 09:01N 40°40' W 074°01'0 0.0
2018-Apr-21 08:30N 40°40' W 074°01'0 0.0
2018-Apr-21 08:01N 40°40' W 074°01'0 0.0
2018-Apr-21 07:30N 40°40' W 074°01'0 0.0
2018-Apr-21 07:01N 40°40' W 074°01'0 0.0
2018-Apr-21 06:30N 40°40' W 074°01'0 0.0
2018-Apr-21 06:00N 40°40' W 074°01'0 0.0
2018-Apr-21 05:31N 40°40' W 074°01'0 0.0
2018-Apr-21 05:01N 40°40' W 074°01'0 0.0
2018-Apr-21 04:31N 40°40' W 074°01'0 0.0
2018-Apr-21 04:00N 40°40' W 074°01'0 0.0
2018-Apr-21 03:31N 40°40' W 074°01'0 0.0
2018-Apr-21 03:01N 40°40' W 074°01'0 0.0
2018-Apr-21 02:30N 40°40' W 074°01'0 0.0
2018-Apr-21 02:00N 40°40' W 074°01'0 0.0
2018-Apr-21 01:31N 40°40' W 074°01'0 0.0
2018-Apr-21 01:00N 40°40' W 074°01'0 0.0
2018-Apr-21 00:30N 40°40' W 074°01'0 0.0
2018-Apr-21 00:00N 40°40' W 074°01'0 0.0
2018-Apr-20 23:31N 40°40' W 074°01'0 0.0
2018-Apr-20 23:01N 40°40' W 074°01'0 0.0
2018-Apr-20 22:31N 40°40' W 074°01'0 0.0
2018-Apr-20 22:01N 40°40' W 074°01'0 0.0
2018-Apr-20 21:31N 40°40' W 074°01'0 0.0
2018-Apr-20 21:01N 40°40' W 074°01'0 0.0
2018-Apr-20 20:31N 40°40' W 074°01'0 0.0
2018-Apr-20 20:00N 40°40' W 074°01'0 0.0
2018-Apr-20 19:31N 40°40' W 074°01'0 0.0
2018-Apr-20 19:01N 40°40' W 074°01'0 0.0
2018-Apr-20 18:30N 40°40' W 074°01'0 0.0
2018-Apr-20 18:01N 40°40' W 074°01'0 0.0
2018-Apr-20 17:31N 40°40' W 074°01'0 0.0
2018-Apr-20 17:00N 40°40' W 074°01'0 0.0
2018-Apr-20 16:30N 40°40' W 074°01'0 0.0
2018-Apr-20 16:00N 40°40' W 074°01'0 0.0
2018-Apr-20 15:30N 40°40' W 074°01'0 0.0
2018-Apr-20 15:01N 40°40' W 074°01'0 0.0
2018-Apr-20 14:31N 40°40' W 074°01'0 0.0
2018-Apr-20 14:00N 40°40' W 074°01'0 0.0
2018-Apr-20 13:30N 40°40' W 074°01'0 0.0
2018-Apr-20 13:00N 40°40' W 074°01'0 0.0
2018-Apr-20 12:31N 40°40' W 074°01'0 0.0
2018-Apr-20 12:01N 40°40' W 074°01'0 0.0
2018-Apr-20 11:30N 40°40' W 074°01'0 0.0
2018-Apr-20 11:00N 40°40' W 074°01'1 2.7
2018-Apr-20 10:30N 40°40' W 074°02'4 7.5
2018-Apr-20 10:01N 40°39' W 074°07'2 3.1
2018-Apr-20 09:31N 40°40' W 074°08'3 5.2
2018-Apr-20 09:00N 40°42' W 074°07'0 0.0
2018-Apr-20 08:30N 40°42' W 074°07'0 0.0
2018-Apr-20 08:00N 40°42' W 074°07'0 0.0
2018-Apr-20 07:31N 40°42' W 074°07'0 0.0
2018-Apr-20 07:01N 40°42' W 074°07'0 0.0
2018-Apr-20 06:31N 40°42' W 074°07'0 0.0
2018-Apr-20 06:00N 40°42' W 074°07'0 0.0
2018-Apr-20 05:30N 40°42' W 074°07'0 0.0
2018-Apr-20 05:01N 40°42' W 074°07'0 0.0
2018-Apr-20 04:31N 40°42' W 074°07'0 0.0
2018-Apr-20 04:00N 40°42' W 074°07'0 0.0
2018-Apr-20 03:30N 40°42' W 074°07'1 1.2
2018-Apr-20 03:00N 40°42' W 074°07'2 4.3
2018-Apr-20 02:30N 40°40' W 074°08'0 0.1
2018-Apr-20 01:59N 40°40' W 074°08'0 0.0
2018-Apr-20 01:29N 40°40' W 074°08'0 0.0
2018-Apr-20 01:00N 40°40' W 074°08'0 0.0
2018-Apr-20 00:30N 40°40' W 074°08'0 0.0
2018-Apr-20 00:00N 40°40' W 074°08'2 3.3
2018-Apr-19 23:29N 40°39' W 074°06'4 7.3
2018-Apr-19 23:00N 40°40' W 074°02'1 2.0
2018-Apr-19 22:30N 40°40' W 074°01'0 0.0
2018-Apr-19 22:00N 40°40' W 074°01'0 0.0
2018-Apr-19 21:30N 40°40' W 074°01'0 0.0
2018-Apr-19 21:00N 40°40' W 074°01'0 0.0
2018-Apr-19 20:31N 40°40' W 074°01'0 0.1
2018-Apr-19 20:00N 40°40' W 074°01'0 0.0
2018-Apr-19 19:00N 40°40' W 074°01'0 0.0
2018-Apr-19 18:30N 40°40' W 074°01'0 0.0
2018-Apr-19 18:00N 40°40' W 074°01'0 0.0
2018-Apr-19 17:30N 40°40' W 074°01'0 0.0
2018-Apr-19 17:01N 40°40' W 074°01'0 0.0
2018-Apr-19 16:30N 40°40' W 074°01'0 0.0
2018-Apr-19 16:01N 40°40' W 074°01'0 0.0
2018-Apr-19 15:31N 40°40' W 074°01'0 0.0
2018-Apr-19 15:00N 40°40' W 074°01'0 0.0
2018-Apr-19 14:31N 40°40' W 074°01'0 0.0
2018-Apr-19 14:00N 40°40' W 074°01'0 0.0
2018-Apr-19 13:30N 40°40' W 074°01'0 0.0
2018-Apr-19 13:01N 40°40' W 074°01'0 0.0
2018-Apr-19 12:30N 40°40' W 074°01'0 0.0
2018-Apr-19 12:01N 40°40' W 074°01'0 0.0
2018-Apr-19 11:31N 40°40' W 074°01'0 0.0
2018-Apr-19 11:01N 40°40' W 074°01'0 0.0
2018-Apr-19 10:30N 40°40' W 074°01'0 0.0
2018-Apr-19 10:00N 40°40' W 074°01'0 0.0
2018-Apr-19 09:31N 40°40' W 074°01'0 0.0
2018-Apr-19 09:00N 40°40' W 074°01'0 0.0
2018-Apr-19 08:30N 40°40' W 074°01'0 0.0
2018-Apr-19 08:00N 40°40' W 074°01'0 0.0
2018-Apr-19 07:31N 40°40' W 074°01'0 0.0
2018-Apr-19 07:01N 40°40' W 074°01'0 0.0
2018-Apr-19 06:30N 40°40' W 074°01'0 0.0
2018-Apr-19 06:00N 40°40' W 074°01'0 0.0
2018-Apr-19 05:31N 40°40' W 074°01'0 0.0
2018-Apr-19 05:01N 40°40' W 074°01'0 0.0
2018-Apr-19 04:31N 40°40' W 074°01'0 0.0
2018-Apr-19 04:01N 40°40' W 074°01'0 0.0
2018-Apr-19 03:30N 40°40' W 074°01'0 0.0
2018-Apr-19 03:00N 40°40' W 074°01'0 0.0
2018-Apr-19 02:31N 40°40' W 074°01'0 0.0
2018-Apr-19 02:01N 40°40' W 074°01'0 0.0
2018-Apr-19 01:31N 40°40' W 074°01'0 0.0
2018-Apr-19 01:01N 40°40' W 074°01'0 0.0
2018-Apr-19 00:31N 40°40' W 074°01'0 0.0
2018-Apr-19 00:00N 40°40' W 074°01'0 0.0
2018-Apr-18 23:30N 40°40' W 074°01'0 0.0
2018-Apr-18 23:00N 40°40' W 074°01'0 0.0
2018-Apr-18 22:31N 40°40' W 074°01'0 0.0
2018-Apr-18 22:01N 40°40' W 074°01'0 0.0
2018-Apr-18 21:31N 40°40' W 074°01'0 0.0
2018-Apr-18 21:00N 40°40' W 074°01'0 0.0
2018-Apr-18 20:30N 40°40' W 074°01'0 0.0
2018-Apr-18 20:00N 40°40' W 074°01'0 0.0
2018-Apr-18 19:30N 40°40' W 074°01'0 0.0
2018-Apr-18 19:01N 40°40' W 074°01'2 3.3
2018-Apr-18 18:30N 40°42' W 074°00'4 8.8
2018-Apr-18 18:01N 40°45' W 073°57'5 8.6
2018-Apr-18 17:29N 40°48' W 073°52'4 7.3
2018-Apr-18 16:57N 40°48' W 073°47'2 0.1
2018-Apr-18 00:51N 40°50' W 073°48'1 2.5
2018-Apr-18 00:28N 40°49' W 073°47'1 2.5
2018-Apr-17 23:59N 40°48' W 073°48'3 7.1
2018-Apr-17 23:29N 40°48' W 073°53'0 0.1
2018-Apr-17 22:59N 40°48' W 073°53'0 0.0
2018-Apr-17 22:30N 40°48' W 073°53'0 0.0
2018-Apr-17 21:55N 40°48' W 073°53'0 0.0
2018-Apr-17 21:26N 40°48' W 073°53'  
Track history (hours):
 
Tides and Currents Weather Stations Pressure Air Temp Water Temp Dewpoint Dewpoint Depression Visibility Wind Speed Wind Dir Waves Ship Positions

Eastern Dawn

Owner: EASTERN BARGE SERVICES INC, SYOSSET, NY. More information available from US FCC via Universal Licensing System and Coast Guard Vessel Documentation Center.

Last reported at 2018-Apr-27 21:25 UTC. Time now 2018-Jun-22 11:29 UTC.
Position N 40°40' W 074°01'.
Warning: this ship's position is 55 days out of date.

Length 14 m; draft 2.5 m.

Type: Towing. MMSI: 367349170.

Date/timePositionNaut miles runAvg speedWind from/ knotsBaromVisibWave heightAir tempDewpointWater temp
2018-Apr-27 21:25N 40°40' W 074°01'0 0.0
2018-Apr-27 21:00N 40°40' W 074°01'0 0.0
2018-Apr-27 20:31N 40°40' W 074°01'0 0.0
2018-Apr-27 20:01N 40°40' W 074°01'0 0.0
2018-Apr-27 19:30N 40°40' W 074°01'0 0.0
2018-Apr-27 19:01N 40°40' W 074°01'0 0.0
2018-Apr-27 18:31N 40°40' W 074°01'0 0.0
2018-Apr-27 17:59N 40°40' W 074°01'0 0.0
2018-Apr-27 17:31N 40°40' W 074°01'0 0.0
2018-Apr-27 17:01N 40°40' W 074°01'0 0.0
2018-Apr-27 16:31N 40°40' W 074°01'0 0.0
2018-Apr-27 16:01N 40°40' W 074°01'0 0.0
2018-Apr-27 15:31N 40°40' W 074°01'0 0.0
2018-Apr-27 15:01N 40°40' W 074°01'0 0.0
2018-Apr-27 14:30N 40°40' W 074°01'0 0.0
2018-Apr-27 14:01N 40°40' W 074°01'0 0.0
2018-Apr-27 13:31N 40°40' W 074°01'0 0.0
2018-Apr-27 13:01N 40°40' W 074°01'0 0.0
2018-Apr-27 12:31N 40°40' W 074°01'0 0.0
2018-Apr-27 12:00N 40°40' W 074°01'0 0.0
2018-Apr-27 11:31N 40°40' W 074°01'0 0.0
2018-Apr-27 11:01N 40°40' W 074°01'0 0.0
2018-Apr-27 10:30N 40°40' W 074°01'0 0.0
2018-Apr-27 10:01N 40°40' W 074°01'0 0.0
2018-Apr-27 09:31N 40°40' W 074°01'0 0.0
2018-Apr-27 09:00N 40°40' W 074°01'0 0.0
2018-Apr-27 08:30N 40°40' W 074°01'0 0.0
2018-Apr-27 08:00N 40°40' W 074°01'0 0.0
2018-Apr-27 07:30N 40°40' W 074°01'0 0.0
2018-Apr-27 07:00N 40°40' W 074°01'0 0.0
2018-Apr-27 06:31N 40°40' W 074°01'0 0.0
2018-Apr-27 06:01N 40°40' W 074°01'0 0.0
2018-Apr-27 05:31N 40°40' W 074°01'0 0.0
2018-Apr-27 05:00N 40°40' W 074°01'0 0.0
2018-Apr-27 04:31N 40°40' W 074°01'0 0.0
2018-Apr-27 04:00N 40°40' W 074°01'0 0.0
2018-Apr-27 03:30N 40°40' W 074°01'0 0.0
2018-Apr-27 03:01N 40°40' W 074°01'0 0.0
2018-Apr-27 02:31N 40°40' W 074°01'0 0.0
2018-Apr-27 02:01N 40°40' W 074°01'0 0.0
2018-Apr-27 01:30N 40°40' W 074°01'1 2.4
2018-Apr-27 01:01N 40°40' W 074°02'4 8.0
2018-Apr-27 00:31N 40°39' W 074°07'3 0.2
2018-Apr-26 09:00N 40°39' W 074°11'4 7.6
2018-Apr-26 08:30N 40°39' W 074°06'4 7.2
2018-Apr-26 08:00N 40°40' W 074°02'1 1.9
2018-Apr-26 07:30N 40°40' W 074°01'0 0.0
2018-Apr-26 07:01N 40°40' W 074°01'0 0.0
2018-Apr-26 06:30N 40°40' W 074°01'0 0.0
2018-Apr-26 06:01N 40°40' W 074°01'0 0.0
2018-Apr-26 05:31N 40°40' W 074°01'0 0.0
2018-Apr-26 05:00N 40°40' W 074°01'0 0.0
2018-Apr-26 04:30N 40°40' W 074°01'0 0.0
2018-Apr-26 04:01N 40°40' W 074°01'0 0.0
2018-Apr-26 03:30N 40°40' W 074°01'0 0.0
2018-Apr-26 03:01N 40°40' W 074°01'0 0.0
2018-Apr-26 02:30N 40°40' W 074°01'0 0.0
2018-Apr-26 02:01N 40°40' W 074°01'0 0.0
2018-Apr-26 01:31N 40°40' W 074°01'0 0.0
2018-Apr-26 01:01N 40°40' W 074°01'0 0.0
2018-Apr-26 00:31N 40°40' W 074°01'0 0.0
2018-Apr-26 00:01N 40°40' W 074°01'0 0.0
2018-Apr-25 23:31N 40°40' W 074°01'0 0.0
2018-Apr-25 23:00N 40°40' W 074°01'0 0.0
2018-Apr-25 22:30N 40°40' W 074°01'0 0.0
2018-Apr-25 22:01N 40°40' W 074°01'0 0.0
2018-Apr-25 21:30N 40°40' W 074°01'0 0.0
2018-Apr-25 21:01N 40°40' W 074°01'0 0.0
2018-Apr-25 20:31N 40°40' W 074°01'0 0.0
2018-Apr-25 20:00N 40°40' W 074°01'0 0.0
2018-Apr-25 19:31N 40°40' W 074°01'0 0.0
2018-Apr-25 19:00N 40°40' W 074°01'0 0.0
2018-Apr-25 18:30N 40°40' W 074°01'0 0.0
2018-Apr-25 18:01N 40°40' W 074°01'0 0.0
2018-Apr-25 17:31N 40°40' W 074°01'0 0.0
2018-Apr-25 17:00N 40°40' W 074°01'0 0.0
2018-Apr-25 16:30N 40°40' W 074°01'0 0.0
2018-Apr-25 16:00N 40°40' W 074°01'0 0.0
2018-Apr-25 15:30N 40°40' W 074°01'0 0.0
2018-Apr-25 15:00N 40°40' W 074°01'0 0.0
2018-Apr-25 14:31N 40°40' W 074°01'0 0.0
2018-Apr-25 14:01N 40°40' W 074°01'0 0.0
2018-Apr-25 13:30N 40°40' W 074°01'0 0.0
2018-Apr-25 13:01N 40°40' W 074°01'0 0.0
2018-Apr-25 12:30N 40°40' W 074°01'0 0.0
2018-Apr-25 12:01N 40°40' W 074°01'0 0.0
2018-Apr-25 11:31N 40°40' W 074°01'0 0.0
2018-Apr-25 11:01N 40°40' W 074°01'0 0.0
2018-Apr-25 10:31N 40°40' W 074°01'0 0.0
2018-Apr-25 10:01N 40°40' W 074°01'0 0.0
2018-Apr-25 09:30N 40°40' W 074°01'0 0.0
2018-Apr-25 09:01N 40°40' W 074°01'0 0.0
2018-Apr-25 08:31N 40°40' W 074°01'0 0.0
2018-Apr-25 08:01N 40°40' W 074°01'0 0.0
2018-Apr-25 07:30N 40°40' W 074°01'0 0.0
2018-Apr-25 06:59N 40°40' W 074°01'0 0.0
2018-Apr-25 06:31N 40°40' W 074°01'0 0.0
2018-Apr-25 06:00N 40°40' W 074°01'0 0.0
2018-Apr-25 05:30N 40°40' W 074°01'0 0.0
2018-Apr-25 05:01N 40°40' W 074°01'0 0.0
2018-Apr-25 04:31N 40°40' W 074°01'0 0.0
2018-Apr-25 04:00N 40°40' W 074°01'0 0.0
2018-Apr-25 03:31N 40°40' W 074°01'0 0.0
2018-Apr-25 03:00N 40°40' W 074°01'0 0.0
2018-Apr-25 02:30N 40°40' W 074°01'0 0.0
2018-Apr-25 02:00N 40°40' W 074°01'0 0.0
2018-Apr-25 01:30N 40°40' W 074°01'0 0.0
2018-Apr-25 01:00N 40°40' W 074°01'0 0.0
2018-Apr-25 00:30N 40°40' W 074°01'0 0.0
2018-Apr-25 00:01N 40°40' W 074°01'0 0.0
2018-Apr-24 23:30N 40°40' W 074°01'0 0.0
2018-Apr-24 23:00N 40°40' W 074°01'0 0.0
2018-Apr-24 22:31N 40°40' W 074°01'0 0.0
2018-Apr-24 22:00N 40°40' W 074°01'0 0.0
2018-Apr-24 21:31N 40°40' W 074°01'0 0.0
2018-Apr-24 21:00N 40°40' W 074°01'0 0.0
2018-Apr-24 20:30N 40°40' W 074°01'0 0.0
2018-Apr-24 20:00N 40°40' W 074°01'0 0.0
2018-Apr-24 19:31N 40°40' W 074°01'0 0.0
2018-Apr-24 19:01N 40°40' W 074°01'0 0.0
2018-Apr-24 18:30N 40°40' W 074°01'0 0.0
2018-Apr-24 18:00N 40°40' W 074°01'0 0.0
2018-Apr-24 17:31N 40°40' W 074°01'0 0.0
2018-Apr-24 17:00N 40°40' W 074°01'0 0.0
2018-Apr-24 16:30N 40°40' W 074°01'0 0.0
2018-Apr-24 16:00N 40°40' W 074°01'0 0.0
2018-Apr-24 15:30N 40°40' W 074°01'0 0.0
2018-Apr-24 15:00N 40°40' W 074°01'0 0.0
2018-Apr-24 14:31N 40°40' W 074°01'0 0.0
2018-Apr-24 14:00N 40°40' W 074°01'0 0.0
2018-Apr-24 13:30N 40°40' W 074°01'0 0.0
2018-Apr-24 13:00N 40°40' W 074°01'0 0.0
2018-Apr-24 12:30N 40°40' W 074°01'0 0.0
2018-Apr-24 12:00N 40°40' W 074°01'0 0.0
2018-Apr-24 11:31N 40°40' W 074°01'0 0.0
2018-Apr-24 11:00N 40°40' W 074°01'0 0.0
2018-Apr-24 10:30N 40°40' W 074°01'0 0.0
2018-Apr-24 10:01N 40°40' W 074°01'0 0.0
2018-Apr-24 09:30N 40°40' W 074°01'0 0.0
2018-Apr-24 09:01N 40°40' W 074°01'0 0.0
2018-Apr-24 08:31N 40°40' W 074°01'0 0.0
2018-Apr-24 08:00N 40°40' W 074°01'0 0.0
2018-Apr-24 07:30N 40°40' W 074°01'0 0.0
2018-Apr-24 07:00N 40°40' W 074°01'0 0.0
2018-Apr-24 06:30N 40°40' W 074°01'0 0.0
2018-Apr-24 06:01N 40°40' W 074°01'0 0.0
2018-Apr-24 05:30N 40°40' W 074°01'0 0.0
2018-Apr-24 05:01N 40°40' W 074°01'0 0.0
2018-Apr-24 04:30N 40°40' W 074°01'0 0.0
2018-Apr-24 04:00N 40°40' W 074°01'0 0.0
2018-Apr-24 03:27N 40°40' W 074°01'0 0.0
2018-Apr-24 02:59N 40°40' W 074°01'0 0.0
2018-Apr-24 02:30N 40°40' W 074°01'0 0.0
2018-Apr-24 02:00N 40°40' W 074°01'0 0.0
2018-Apr-24 01:30N 40°40' W 074°01'0 0.0
2018-Apr-24 01:00N 40°40' W 074°01'0 0.0
2018-Apr-24 00:30N 40°40' W 074°01'0 0.0
2018-Apr-24 00:00N 40°40' W 074°01'0 0.0
2018-Apr-23 23:30N 40°40' W 074°01'0 0.0
2018-Apr-23 23:00N 40°40' W 074°01'0 0.0
2018-Apr-23 22:31N 40°40' W 074°01'0 0.0
2018-Apr-23 22:00N 40°40' W 074°01'0 0.0
2018-Apr-23 21:30N 40°40' W 074°01'0 0.0
2018-Apr-23 21:00N 40°40' W 074°01'0 0.0
2018-Apr-23 20:30N 40°40' W 074°01'0 0.0
2018-Apr-23 20:00N 40°40' W 074°01'0 0.0
2018-Apr-23 19:25N 40°40' W 074°01'0 0.0
2018-Apr-23 19:01N 40°40' W 074°01'0 0.0
2018-Apr-23 18:29N 40°40' W 074°01'0 0.0
2018-Apr-23 18:01N 40°40' W 074°01'0 0.0
2018-Apr-23 17:30N 40°40' W 074°01'0 0.0
2018-Apr-23 16:58N 40°40' W 074°01'0 0.0
2018-Apr-23 16:30N 40°40' W 074°01'0 0.0
2018-Apr-23 16:00N 40°40' W 074°01'0 0.0
2018-Apr-23 15:30N 40°40' W 074°01'0 0.0
2018-Apr-23 15:01N 40°40' W 074°01'0 0.0
2018-Apr-23 14:30N 40°40' W 074°01'0 0.0
2018-Apr-23 13:59N 40°40' W 074°01'0 0.0
2018-Apr-23 13:30N 40°40' W 074°01'0 0.0
2018-Apr-23 13:00N 40°40' W 074°01'0 0.0
2018-Apr-23 12:27N 40°40' W 074°01'0 0.0
2018-Apr-23 12:00N 40°40' W 074°01'0 0.0
2018-Apr-23 11:30N 40°40' W 074°01'0 0.0
2018-Apr-23 11:00N 40°40' W 074°01'0 0.0
2018-Apr-23 10:30N 40°40' W 074°01'0 0.0
2018-Apr-23 10:00N 40°40' W 074°01'0 0.0
2018-Apr-23 09:30N 40°40' W 074°01'0 0.0
2018-Apr-23 09:00N 40°40' W 074°01'0 0.0
2018-Apr-23 08:30N 40°40' W 074°01'0 0.0
2018-Apr-23 08:01N 40°40' W 074°01'0 0.0
2018-Apr-23 07:31N 40°40' W 074°01'0 0.0
2018-Apr-23 07:00N 40°40' W 074°01'0 0.0
2018-Apr-23 06:31N 40°40' W 074°01'0 0.0
2018-Apr-23 06:01N 40°40' W 074°01'0 0.0
2018-Apr-23 05:30N 40°40' W 074°01'0 0.0
2018-Apr-23 05:00N 40°40' W 074°01'0 0.0
2018-Apr-23 04:30N 40°40' W 074°01'0 0.0
2018-Apr-23 04:01N 40°40' W 074°01'0 0.0
2018-Apr-23 03:30N 40°40' W 074°01'0 0.0
2018-Apr-23 03:00N 40°40' W 074°01'0 0.0
2018-Apr-23 02:30N 40°40' W 074°01'0 0.0
2018-Apr-23 02:01N 40°40' W 074°01'0 0.0
2018-Apr-23 01:30N 40°40' W 074°01'1 2.2
2018-Apr-23 01:01N 40°41' W 074°02'1 2.0
2018-Apr-23 00:31N 40°42' W 074°02'0 0.0
2018-Apr-23 00:01N 40°42' W 074°02'2 4.1
2018-Apr-22 23:31N 40°40' W 074°01'0 0.0
2018-Apr-22 23:01N 40°40' W 074°01'0 0.0
2018-Apr-22 22:31N 40°40' W 074°01'0 0.0
2018-Apr-22 22:01N 40°40' W 074°01'0 0.4
2018-Apr-22 21:31N 40°40' W 074°01'0 0.0
2018-Apr-22 21:01N 40°40' W 074°01'0 0.0
2018-Apr-22 20:31N 40°40' W 074°01'0 0.1
2018-Apr-22 20:00N 40°40' W 074°01'0 0.0
2018-Apr-22 19:31N 40°40' W 074°01'0 0.0
2018-Apr-22 19:00N 40°40' W 074°01'0 0.0
2018-Apr-22 18:31N 40°40' W 074°01'0 0.0
2018-Apr-22 18:01N 40°40' W 074°01'0 0.0
2018-Apr-22 17:31N 40°40' W 074°01'0 0.0
2018-Apr-22 17:00N 40°40' W 074°01'0 0.0
2018-Apr-22 16:30N 40°40' W 074°01'0 0.0
2018-Apr-22 16:00N 40°40' W 074°01'0 0.0
2018-Apr-22 15:30N 40°40' W 074°01'0 0.0
2018-Apr-22 15:01N 40°40' W 074°01'0 0.0
2018-Apr-22 14:30N 40°40' W 074°01'0 0.0
2018-Apr-22 14:01N 40°40' W 074°01'0 0.0
2018-Apr-22 13:30N 40°40' W 074°01'0 0.0
2018-Apr-22 13:01N 40°40' W 074°01'0 0.0
2018-Apr-22 12:31N 40°40' W 074°01'0 0.0
2018-Apr-22 12:01N 40°40' W 074°01'0 0.0
2018-Apr-22 11:31N 40°40' W 074°01'0 0.0
2018-Apr-22 11:00N 40°40' W 074°01'0 0.0
2018-Apr-22 10:30N 40°40' W 074°01'0 0.0
2018-Apr-22 10:00N 40°40' W 074°01'0 0.0
2018-Apr-22 09:31N 40°40' W 074°01'0 0.0
2018-Apr-22 09:00N 40°40' W 074°01'0 0.0
2018-Apr-22 08:31N 40°40' W 074°01'0 0.0
2018-Apr-22 08:00N 40°40' W 074°01'0 0.0
2018-Apr-22 07:30N 40°40' W 074°01'0 0.0
2018-Apr-22 07:00N 40°40' W 074°01'0 0.0
2018-Apr-22 06:30N 40°40' W 074°01'0 0.0
2018-Apr-22 06:01N 40°40' W 074°01'0 0.0
2018-Apr-22 05:30N 40°40' W 074°01'0 0.0
2018-Apr-22 05:00N 40°40' W 074°01'0 0.0
2018-Apr-22 04:30N 40°40' W 074°01'0 0.0
2018-Apr-22 04:00N 40°40' W 074°01'0 0.0
2018-Apr-22 03:31N 40°40' W 074°01'0 0.0
2018-Apr-22 03:01N 40°40' W 074°01'0 0.0
2018-Apr-22 02:30N 40°40' W 074°01'0 0.0
2018-Apr-22 02:01N 40°40' W 074°01'0 0.0
2018-Apr-22 01:31N 40°40' W 074°01'0 0.0
2018-Apr-22 01:00N 40°40' W 074°01'0 0.0
2018-Apr-22 00:31N 40°40' W 074°01'0 0.0
2018-Apr-22 00:00N 40°40' W 074°01'0 0.0
2018-Apr-21 23:30N 40°40' W 074°01'0 0.0
2018-Apr-21 23:00N 40°40' W 074°01'0 0.0
2018-Apr-21 22:31N 40°40' W 074°01'0 0.0
2018-Apr-21 22:01N 40°40' W 074°01'0 0.0
2018-Apr-21 21:31N 40°40' W 074°01'0 0.0
2018-Apr-21 21:01N 40°40' W 074°01'0 0.0
2018-Apr-21 20:30N 40°40' W 074°01'0 0.0
2018-Apr-21 20:00N 40°40' W 074°01'0 0.0
2018-Apr-21 19:30N 40°40' W 074°01'0 0.0
2018-Apr-21 19:01N 40°40' W 074°01'0 0.0
2018-Apr-21 18:31N 40°40' W 074°01'0 0.0
2018-Apr-21 18:00N 40°40' W 074°01'0 0.0
2018-Apr-21 17:31N 40°40' W 074°01'0 0.0
2018-Apr-21 17:00N 40°40' W 074°01'0 0.0
2018-Apr-21 16:31N 40°40' W 074°01'0 0.0
2018-Apr-21 16:01N 40°40' W 074°01'0 0.0
2018-Apr-21 15:31N 40°40' W 074°01'0 0.0
2018-Apr-21 15:00N 40°40' W 074°01'0 0.0
2018-Apr-21 14:31N 40°40' W 074°01'0 0.0
2018-Apr-21 14:00N 40°40' W 074°01'0 0.0
2018-Apr-21 13:30N 40°40' W 074°01'0 0.0
2018-Apr-21 13:01N 40°40' W 074°01'0 0.0
2018-Apr-21 12:29N 40°40' W 074°01'0 0.0
2018-Apr-21 12:01N 40°40' W 074°01'0 0.0
2018-Apr-21 11:31N 40°40' W 074°01'0 0.0
2018-Apr-21 11:01N 40°40' W 074°01'0 0.0
2018-Apr-21 10:31N 40°40' W 074°01'0 0.0
2018-Apr-21 10:00N 40°40' W 074°01'0 0.0
2018-Apr-21 09:31N 40°40' W 074°01'0 0.0
2018-Apr-21 09:01N 40°40' W 074°01'0 0.0
2018-Apr-21 08:30N 40°40' W 074°01'0 0.0
2018-Apr-21 08:01N 40°40' W 074°01'0 0.0
2018-Apr-21 07:30N 40°40' W 074°01'0 0.0
2018-Apr-21 07:01N 40°40' W 074°01'0 0.0
2018-Apr-21 06:30N 40°40' W 074°01'0 0.0
2018-Apr-21 06:00N 40°40' W 074°01'0 0.0
2018-Apr-21 05:31N 40°40' W 074°01'0 0.0
2018-Apr-21 05:01N 40°40' W 074°01'0 0.0
2018-Apr-21 04:31N 40°40' W 074°01'0 0.0
2018-Apr-21 04:00N 40°40' W 074°01'0 0.0
2018-Apr-21 03:31N 40°40' W 074°01'0 0.0
2018-Apr-21 03:01N 40°40' W 074°01'0 0.0
2018-Apr-21 02:30N 40°40' W 074°01'0 0.0
2018-Apr-21 02:00N 40°40' W 074°01'0 0.0
2018-Apr-21 01:31N 40°40' W 074°01'0 0.0
2018-Apr-21 01:00N 40°40' W 074°01'0 0.0
2018-Apr-21 00:30N 40°40' W 074°01'0 0.0
2018-Apr-21 00:00N 40°40' W 074°01'0 0.0
2018-Apr-20 23:31N 40°40' W 074°01'0 0.0
2018-Apr-20 23:01N 40°40' W 074°01'0 0.0
2018-Apr-20 22:31N 40°40' W 074°01'0 0.0
2018-Apr-20 22:01N 40°40' W 074°01'0 0.0
2018-Apr-20 21:31N 40°40' W 074°01'0 0.0
2018-Apr-20 21:01N 40°40' W 074°01'0 0.0
2018-Apr-20 20:31N 40°40' W 074°01'0 0.0
2018-Apr-20 20:00N 40°40' W 074°01'0 0.0
2018-Apr-20 19:31N 40°40' W 074°01'0 0.0
2018-Apr-20 19:01N 40°40' W 074°01'0 0.0
2018-Apr-20 18:30N 40°40' W 074°01'0 0.0
2018-Apr-20 18:01N 40°40' W 074°01'0 0.0
2018-Apr-20 17:31N 40°40' W 074°01'0 0.0
2018-Apr-20 17:00N 40°40' W 074°01'0 0.0
2018-Apr-20 16:30N 40°40' W 074°01'0 0.0
2018-Apr-20 16:00N 40°40' W 074°01'0 0.0
2018-Apr-20 15:30N 40°40' W 074°01'0 0.0
2018-Apr-20 15:01N 40°40' W 074°01'0 0.0
2018-Apr-20 14:31N 40°40' W 074°01'0 0.0
2018-Apr-20 14:00N 40°40' W 074°01'0 0.0
2018-Apr-20 13:30N 40°40' W 074°01'0 0.0
2018-Apr-20 13:00N 40°40' W 074°01'0 0.0
2018-Apr-20 12:31N 40°40' W 074°01'0 0.0
2018-Apr-20 12:01N 40°40' W 074°01'0 0.0
2018-Apr-20 11:30N 40°40' W 074°01'0 0.0
2018-Apr-20 11:00N 40°40' W 074°01'1 2.7
2018-Apr-20 10:30N 40°40' W 074°02'4 7.5
2018-Apr-20 10:01N 40°39' W 074°07'2 3.1
2018-Apr-20 09:31N 40°40' W 074°08'3 5.2
2018-Apr-20 09:00N 40°42' W 074°07'0 0.0
2018-Apr-20 08:30N 40°42' W 074°07'0 0.0
2018-Apr-20 08:00N 40°42' W 074°07'0 0.0
2018-Apr-20 07:31N 40°42' W 074°07'0 0.0
2018-Apr-20 07:01N 40°42' W 074°07'0 0.0
2018-Apr-20 06:31N 40°42' W 074°07'0 0.0
2018-Apr-20 06:00N 40°42' W 074°07'0 0.0
2018-Apr-20 05:30N 40°42' W 074°07'0 0.0
2018-Apr-20 05:01N 40°42' W 074°07'0 0.0
2018-Apr-20 04:31N 40°42' W 074°07'0 0.0
2018-Apr-20 04:00N 40°42' W 074°07'0 0.0
2018-Apr-20 03:30N 40°42' W 074°07'1 1.2
2018-Apr-20 03:00N 40°42' W 074°07'2 4.3
2018-Apr-20 02:30N 40°40' W 074°08'0 0.1
2018-Apr-20 01:59N 40°40' W 074°08'0 0.0
2018-Apr-20 01:29N 40°40' W 074°08'0 0.0
2018-Apr-20 01:00N 40°40' W 074°08'0 0.0
2018-Apr-20 00:30N 40°40' W 074°08'0 0.0
2018-Apr-20 00:00N 40°40' W 074°08'2 3.3
2018-Apr-19 23:29N 40°39' W 074°06'4 7.3
2018-Apr-19 23:00N 40°40' W 074°02'1 2.0
2018-Apr-19 22:30N 40°40' W 074°01'0 0.0
2018-Apr-19 22:00N 40°40' W 074°01'0 0.0
2018-Apr-19 21:30N 40°40' W 074°01'0 0.0
2018-Apr-19 21:00N 40°40' W 074°01'0 0.0
2018-Apr-19 20:31N 40°40' W 074°01'0 0.1
2018-Apr-19 20:00N 40°40' W 074°01'0 0.0
2018-Apr-19 19:00N 40°40' W 074°01'0 0.0
2018-Apr-19 18:30N 40°40' W 074°01'0 0.0
2018-Apr-19 18:00N 40°40' W 074°01'0 0.0
2018-Apr-19 17:30N 40°40' W 074°01'0 0.0
2018-Apr-19 17:01N 40°40' W 074°01'0 0.0
2018-Apr-19 16:30N 40°40' W 074°01'0 0.0
2018-Apr-19 16:01N 40°40' W 074°01'0 0.0
2018-Apr-19 15:31N 40°40' W 074°01'0 0.0
2018-Apr-19 15:00N 40°40' W 074°01'0 0.0
2018-Apr-19 14:31N 40°40' W 074°01'0 0.0
2018-Apr-19 14:00N 40°40' W 074°01'0 0.0
2018-Apr-19 13:30N 40°40' W 074°01'0 0.0
2018-Apr-19 13:01N 40°40' W 074°01'0 0.0
2018-Apr-19 12:30N 40°40' W 074°01'0 0.0
2018-Apr-19 12:01N 40°40' W 074°01'0 0.0
2018-Apr-19 11:31N 40°40' W 074°01'0 0.0
2018-Apr-19 11:01N 40°40' W 074°01'0 0.0
2018-Apr-19 10:30N 40°40' W 074°01'0 0.0
2018-Apr-19 10:00N 40°40' W 074°01'0 0.0
2018-Apr-19 09:31N 40°40' W 074°01'0 0.0
2018-Apr-19 09:00N 40°40' W 074°01'0 0.0
2018-Apr-19 08:30N 40°40' W 074°01'0 0.0
2018-Apr-19 08:00N 40°40' W 074°01'0 0.0
2018-Apr-19 07:31N 40°40' W 074°01'0 0.0
2018-Apr-19 07:01N 40°40' W 074°01'0 0.0
2018-Apr-19 06:30N 40°40' W 074°01'0 0.0
2018-Apr-19 06:00N 40°40' W 074°01'0 0.0
2018-Apr-19 05:31N 40°40' W 074°01'0 0.0
2018-Apr-19 05:01N 40°40' W 074°01'0 0.0
2018-Apr-19 04:31N 40°40' W 074°01'0 0.0
2018-Apr-19 04:01N 40°40' W 074°01'0 0.0
2018-Apr-19 03:30N 40°40' W 074°01'0 0.0
2018-Apr-19 03:00N 40°40' W 074°01'0 0.0
2018-Apr-19 02:31N 40°40' W 074°01'0 0.0
2018-Apr-19 02:01N 40°40' W 074°01'0 0.0
2018-Apr-19 01:31N 40°40' W 074°01'0 0.0
2018-Apr-19 01:01N 40°40' W 074°01'0 0.0
2018-Apr-19 00:31N 40°40' W 074°01'0 0.0
2018-Apr-19 00:00N 40°40' W 074°01'0 0.0
2018-Apr-18 23:30N 40°40' W 074°01'0 0.0
2018-Apr-18 23:00N 40°40' W 074°01'0 0.0
2018-Apr-18 22:31N 40°40' W 074°01'0 0.0
2018-Apr-18 22:01N 40°40' W 074°01'0 0.0
2018-Apr-18 21:31N 40°40' W 074°01'0 0.0
2018-Apr-18 21:00N 40°40' W 074°01'0 0.0
2018-Apr-18 20:30N 40°40' W 074°01'0 0.0
2018-Apr-18 20:00N 40°40' W 074°01'0 0.0
2018-Apr-18 19:30N 40°40' W 074°01'0 0.0
2018-Apr-18 19:01N 40°40' W 074°01'2 3.3
2018-Apr-18 18:30N 40°42' W 074°00'4 8.8
2018-Apr-18 18:01N 40°45' W 073°57'5 8.6
2018-Apr-18 17:29N 40°48' W 073°52'4 7.3
2018-Apr-18 16:57N 40°48' W 073°47'2 0.1
2018-Apr-18 00:51N 40°50' W 073°48'1 2.5
2018-Apr-18 00:28N 40°49' W 073°47'1 2.5
2018-Apr-17 23:59N 40°48' W 073°48'3 7.1
2018-Apr-17 23:29N 40°48' W 073°53'0 0.1
2018-Apr-17 22:59N 40°48' W 073°53'0 0.0
2018-Apr-17 22:30N 40°48' W 073°53'0 0.0
2018-Apr-17 21:55N 40°48' W 073°53'0 0.0
2018-Apr-17 21:26N 40°48' W 073°53'  

Dump ship's entire track history